Time;durP1;ratioP1;P1;durP2;ratioP2;P2;SDS_P1;SDS_P2;PMS_P1;PMS_P2;Temp;Humidity;BMP_temperature;BMP_pressure;BME280_temperature;BME280_humidity;BME280_pressure;Samples;Min_cycle;Max_cycle;Signal;HPM_P1;HPM_P2
2024/03/14 00:00:42;;;;;;;4.27;2.40;;;;;;;;;;5094161;28;20048;-71
2024/03/14 00:03:08;;;;;;;0.82;0.75;;;;;;;;;;5093765;28;20375;-72
2024/03/14 00:05:33;;;;;;;0.63;0.63;;;;;;;;;;5094280;28;20032;-72
2024/03/14 00:08:00;;;;;;;0.52;0.52;;;;;;;;;;5102148;28;20472;-72
2024/03/14 00:10:25;;;;;;;0.80;0.77;;;;;;;;;;5095188;28;20475;-72
2024/03/14 00:12:51;;;;;;;0.87;0.63;;;;;;;;;;5093972;28;20026;-72
2024/03/14 00:15:16;;;;;;;2.38;2.17;;;;;;;;;;5094191;28;20360;-72
2024/03/14 00:17:44;;;;;;;0.30;0.30;;;;;;;;;;5093783;28;20041;-71
2024/03/14 00:20:11;;;;;;;3.30;2.20;;;;;;;;;;5094041;28;20535;-72
2024/03/14 00:22:37;;;;;;;4.85;1.42;;;;;;;;;;5094085;28;20016;-71
2024/03/14 00:25:02;;;;;;;0.70;0.40;;;;;;;;;;5094153;28;20154;-72
2024/03/14 00:27:28;;;;;;;0.60;0.60;;;;;;;;;;5093358;28;20036;-72
2024/03/14 00:29:55;;;;;;;0.40;0.40;;;;;;;;;;5093854;28;20032;-72
2024/03/14 00:32:20;;;;;;;0.30;0.30;;;;;;;;;;5093768;28;20103;-72
2024/03/14 00:34:45;;;;;;;0.23;0.23;;;;;;;;;;5093851;28;20524;-71
2024/03/14 00:37:11;;;;;;;0.17;0.17;;;;;;;;;;5111162;28;20019;-72
2024/03/14 00:39:36;;;;;;;1.42;0.52;;;;;;;;;;5112130;28;20027;-72
2024/03/14 00:42:03;;;;;;;0.60;0.60;;;;;;;;;;5113546;28;20016;-72
2024/03/14 00:44:29;;;;;;;10.40;0.55;;;;;;;;;;5113167;28;20244;-71
2024/03/14 00:46:54;;;;;;;0.98;0.65;;;;;;;;;;5113504;28;20077;-72
2024/03/14 00:49:19;;;;;;;0.20;0.20;;;;;;;;;;5113266;28;20099;-72
2024/03/14 00:51:44;;;;;;;1.23;1.13;;;;;;;;;;5112878;28;20339;-72
2024/03/14 00:54:09;;;;;;;4.53;0.87;;;;;;;;;;5112929;28;20011;-72
2024/03/14 00:56:35;;;;;;;0.38;0.38;;;;;;;;;;5113102;28;20264;-72
2024/03/14 00:59:01;;;;;;;1.98;1.05;;;;;;;;;;5112816;28;20402;-72
2024/03/14 01:01:26;;;;;;;2.45;1.77;;;;;;;;;;5085407;28;20020;-72
2024/03/14 01:03:52;;;;;;;0.20;0.20;;;;;;;;;;5094359;28;20024;-72
2024/03/14 01:06:17;;;;;;;1.45;0.60;;;;;;;;;;5099415;28;20165;-72
2024/03/14 01:08:43;;;;;;;0.73;0.73;;;;;;;;;;5098812;28;20062;-72
2024/03/14 01:11:08;;;;;;;0.70;0.43;;;;;;;;;;5093453;28;20486;-72
2024/03/14 01:13:34;;;;;;;1.27;1.15;;;;;;;;;;5100647;28;20022;-72
2024/03/14 01:15:59;;;;;;;0.88;0.88;;;;;;;;;;5115537;28;20027;-72
2024/03/14 01:18:25;;;;;;;1.27;0.75;;;;;;;;;;5115961;28;20015;-72
2024/03/14 01:20:50;;;;;;;0.20;0.20;;;;;;;;;;5117063;28;20062;-72
2024/03/14 01:23:16;;;;;;;1.95;1.65;;;;;;;;;;5115338;28;20386;-72
2024/03/14 01:25:41;;;;;;;0.30;0.30;;;;;;;;;;5097427;28;20020;-72
2024/03/14 01:28:07;;;;;;;0.47;0.47;;;;;;;;;;5096949;28;20068;-72
2024/03/14 01:30:32;;;;;;;4.55;1.40;;;;;;;;;;5106569;28;20272;-72
2024/03/14 01:32:58;;;;;;;1.13;0.68;;;;;;;;;;5116759;28;20024;-72
2024/03/14 01:35:24;;;;;;;0.60;0.57;;;;;;;;;;5116585;28;20027;-63
2024/03/14 01:37:49;;;;;;;2.72;0.80;;;;;;;;;;5100540;28;20026;-62
2024/03/14 01:40:15;;;;;;;1.08;0.52;;;;;;;;;;5116017;28;20036;-62
2024/03/14 01:42:43;;;;;;;0.20;0.20;;;;;;;;;;5115599;28;20371;-62
2024/03/14 01:45:09;;;;;;;0.32;0.32;;;;;;;;;;5097008;28;20367;-63
2024/03/14 01:47:34;;;;;;;1.98;0.80;;;;;;;;;;5096734;28;20015;-62
2024/03/14 01:50:01;;;;;;;0.67;0.67;;;;;;;;;;5105489;28;20034;-63
2024/03/14 01:52:26;;;;;;;1.10;0.68;;;;;;;;;;5116662;28;20260;-63
2024/03/14 01:54:51;;;;;;;0.15;0.15;;;;;;;;;;5116816;28;20026;-62
2024/03/14 01:57:17;;;;;;;0.93;0.93;;;;;;;;;;5097498;28;20471;-62
2024/03/14 01:59:43;;;;;;;0.52;0.52;;;;;;;;;;5096384;28;20020;-62
2024/03/14 02:02:08;;;;;;;0.60;0.55;;;;;;;;;;5100397;28;20011;-62
2024/03/14 02:04:45;;;;;;;0.47;0.47;;;;;;;;;;5096431;28;20024;-62
2024/03/14 02:07:14;;;;;;;0.88;0.77;;;;;;;;;;5097410;28;20016;-62
2024/03/14 02:09:39;;;;;;;0.45;0.38;;;;;;;;;;5097439;28;20098;-62
2024/03/14 02:12:05;;;;;;;18.70;1.00;;;;;;;;;;5096560;28;20465;-62
2024/03/14 02:14:30;;;;;;;0.70;0.70;;;;;;;;;;5096470;28;20383;-62
2024/03/14 02:16:56;;;;;;;0.08;0.08;;;;;;;;;;5105755;28;20038;-63
2024/03/14 02:19:21;;;;;;;2.53;1.10;;;;;;;;;;5075630;28;20017;-62
2024/03/14 02:21:47;;;;;;;0.77;0.70;;;;;;;;;;5087953;28;20085;-62
2024/03/14 02:24:12;;;;;;;0.90;0.85;;;;;;;;;;5114631;28;20456;-63
2024/03/14 02:26:39;;;;;;;0.30;0.30;;;;;;;;;;5109093;28;20110;-62
2024/03/14 02:29:04;;;;;;;0.20;0.20;;;;;;;;;;5104603;28;20079;-62
2024/03/14 02:31:29;;;;;;;0.47;0.47;;;;;;;;;;5115151;28;20092;-62
2024/03/14 02:33:54;;;;;;;0.20;0.20;;;;;;;;;;5101236;28;20284;-62
2024/03/14 02:36:20;;;;;;;0.23;0.23;;;;;;;;;;5096934;28;20383;-63
2024/03/14 02:38:45;;;;;;;0.80;0.77;;;;;;;;;;5095614;28;20275;-63
2024/03/14 02:41:10;;;;;;;0.17;0.17;;;;;;;;;;5106488;28;20024;-63
2024/03/14 02:43:36;;;;;;;0.87;0.83;;;;;;;;;;5097095;28;20024;-62
2024/03/14 02:46:02;;;;;;;0.28;0.25;;;;;;;;;;5096817;28;20023;-72
2024/03/14 02:48:27;;;;;;;1.13;0.85;;;;;;;;;;5095643;28;20020;-72
2024/03/14 02:50:52;;;;;;;0.70;0.60;;;;;;;;;;5095794;28;20028;-72
2024/03/14 02:53:17;;;;;;;2.53;1.17;;;;;;;;;;5107728;28;20497;-72
2024/03/14 02:55:44;;;;;;;0.10;0.10;;;;;;;;;;5115517;28;20020;-71
2024/03/14 02:58:09;;;;;;;2.28;1.10;;;;;;;;;;5113782;28;20070;-71
2024/03/14 03:00:34;;;;;;;0.63;0.50;;;;;;;;;;5113393;28;20498;-72
2024/03/14 03:03:00;;;;;;;2.03;1.83;;;;;;;;;;5099085;28;20736;-71
2024/03/14 03:05:25;;;;;;;0.10;0.10;;;;;;;;;;5103783;28;20020;-72
2024/03/14 03:08:04;;;;;;;0.00;0.00;;;;;;;;;;5095151;28;20491;-72
2024/03/14 03:10:29;;;;;;;0.10;0.10;;;;;;;;;;5096918;28;20036;-72
2024/03/14 03:12:55;;;;;;;0.13;0.13;;;;;;;;;;5113806;28;20019;-72
2024/03/14 03:15:20;;;;;;;1.80;0.73;;;;;;;;;;5102419;28;20024;-72
2024/03/14 03:17:45;;;;;;;0.20;0.20;;;;;;;;;;5088260;28;20276;-71
2024/03/14 03:20:11;;;;;;;0.33;0.33;;;;;;;;;;5114833;28;20287;-72
2024/03/14 03:25:21;;;;;;;0.40;0.40;;;;;;;;;;5095313;28;20026;-72
2024/03/14 03:27:46;;;;;;;0.20;0.20;;;;;;;;;;5094444;28;20047;-72
2024/03/14 03:30:12;;;;;;;0.43;0.43;;;;;;;;;;5098224;28;20016;-72
2024/03/14 03:32:37;;;;;;;1.40;1.05;;;;;;;;;;5113269;28;20068;-72
2024/03/14 03:35:03;;;;;;;0.23;0.23;;;;;;;;;;5100360;28;20024;-72
2024/03/14 03:37:29;;;;;;;1.55;0.50;;;;;;;;;;5101887;28;20248;-72
2024/03/14 03:39:56;;;;;;;2.22;1.55;;;;;;;;;;5095264;28;20046;-72
2024/03/14 03:42:21;;;;;;;2.22;0.63;;;;;;;;;;5094768;28;20384;-72
2024/03/14 03:44:47;;;;;;;0.93;0.93;;;;;;;;;;5095576;28;20027;-71
2024/03/14 03:47:12;;;;;;;0.60;0.60;;;;;;;;;;5094625;28;20257;-72
2024/03/14 03:49:39;;;;;;;0.20;0.20;;;;;;;;;;5094817;28;20027;-72
2024/03/14 03:52:06;;;;;;;0.70;0.70;;;;;;;;;;5110125;28;20020;-72
2024/03/14 03:54:31;;;;;;;0.43;0.43;;;;;;;;;;5095350;28;20038;-72
2024/03/14 03:56:56;;;;;;;0.20;0.20;;;;;;;;;;5097553;28;20027;-72
2024/03/14 03:59:22;;;;;;;0.20;0.20;;;;;;;;;;5114020;28;20026;-72
2024/03/14 04:01:47;;;;;;;0.90;0.70;;;;;;;;;;5113705;28;20413;-72
2024/03/14 04:04:12;;;;;;;0.20;0.20;;;;;;;;;;5105716;28;20043;-72
2024/03/14 04:06:37;;;;;;;0.35;0.13;;;;;;;;;;5113827;28;20244;-72
2024/03/14 04:09:03;;;;;;;0.30;0.30;;;;;;;;;;5113237;28;20031;-72
2024/03/14 04:11:28;;;;;;;1.03;0.50;;;;;;;;;;5109323;28;20059;-72
2024/03/14 04:13:53;;;;;;;0.30;0.20;;;;;;;;;;5100706;28;20111;-72
2024/03/14 04:16:21;;;;;;;0.45;0.45;;;;;;;;;;5113342;28;20019;-72
2024/03/14 04:18:46;;;;;;;0.30;0.30;;;;;;;;;;5109153;28;20467;-72
2024/03/14 04:21:15;;;;;;;1.80;1.33;;;;;;;;;;5101509;28;20027;-72
2024/03/14 04:23:40;;;;;;;0.20;0.20;;;;;;;;;;5111104;28;20418;-72
2024/03/14 04:26:09;;;;;;;1.40;0.45;;;;;;;;;;5098853;28;20019;-72
2024/03/14 04:28:34;;;;;;;0.10;0.10;;;;;;;;;;5112860;28;20038;-72
2024/03/14 04:30:59;;;;;;;0.45;0.45;;;;;;;;;;5101978;28;20024;-72
2024/03/14 04:33:25;;;;;;;0.40;0.40;;;;;;;;;;5099124;28;20098;-72
2024/03/14 04:35:50;;;;;;;0.20;0.20;;;;;;;;;;5097629;28;20032;-72
2024/03/14 04:38:18;;;;;;;0.40;0.40;;;;;;;;;;5093823;28;20372;-71
2024/03/14 04:40:43;;;;;;;0.82;0.75;;;;;;;;;;5094893;28;20451;-72
2024/03/14 04:43:08;;;;;;;0.20;0.20;;;;;;;;;;5101976;28;20062;-72
2024/03/14 04:45:34;;;;;;;0.10;0.10;;;;;;;;;;5101520;28;20647;-72
2024/03/14 04:48:02;;;;;;;0.47;0.47;;;;;;;;;;5108193;28;20041;-72
2024/03/14 04:50:27;;;;;;;0.50;0.50;;;;;;;;;;5094179;28;20518;-72
2024/03/14 04:52:52;;;;;;;0.00;0.00;;;;;;;;;;5097247;28;20024;-72
2024/03/14 04:55:17;;;;;;;0.23;0.23;;;;;;;;;;5113200;28;20271;-72
2024/03/14 04:57:45;;;;;;;0.77;0.43;;;;;;;;;;5112884;28;20062;-72
2024/03/14 05:00:31;;;;;;;0.10;0.10;;;;;;;;;;5099938;28;20024;-72
2024/03/14 05:02:56;;;;;;;0.20;0.20;;;;;;;;;;5093841;28;20440;-72
2024/03/14 05:05:22;;;;;;;0.10;0.10;;;;;;;;;;5098603;28;20050;-72
2024/03/14 05:07:48;;;;;;;0.10;0.10;;;;;;;;;;5096471;28;20028;-71
2024/03/14 05:10:19;;;;;;;2.78;1.33;;;;;;;;;;5095997;28;20023;-72
2024/03/14 05:12:45;;;;;;;0.10;0.10;;;;;;;;;;5097590;28;20020;-72
2024/03/14 05:15:10;;;;;;;0.88;0.88;;;;;;;;;;5093394;28;20088;-72
2024/03/14 05:17:36;;;;;;;0.40;0.38;;;;;;;;;;5098040;28;20430;-72
2024/03/14 05:20:02;;;;;;;0.55;0.55;;;;;;;;;;5111419;28;20382;-72
2024/03/14 05:22:28;;;;;;;0.15;0.15;;;;;;;;;;5102772;28;20029;-71
2024/03/14 05:24:54;;;;;;;0.30;0.30;;;;;;;;;;5105246;28;20443;-72
2024/03/14 05:27:19;;;;;;;0.57;0.57;;;;;;;;;;5111449;28;20077;-71
2024/03/14 05:29:46;;;;;;;0.40;0.40;;;;;;;;;;5110904;28;20121;-71
2024/03/14 05:32:21;;;;;;;0.10;0.10;;;;;;;;;;5092440;28;20771;-70
2024/03/14 05:34:47;;;;;;;0.25;0.25;;;;;;;;;;5092223;28;20540;-70
2024/03/14 05:37:12;;;;;;;0.20;0.20;;;;;;;;;;5091976;28;20024;-72
2024/03/14 05:39:38;;;;;;;0.20;0.20;;;;;;;;;;5091914;28;20032;-72
2024/03/14 05:42:03;;;;;;;0.53;0.20;;;;;;;;;;5111606;28;20414;-71
2024/03/14 05:44:28;;;;;;;0.10;0.10;;;;;;;;;;5094064;28;20257;-72
2024/03/14 05:46:53;;;;;;;0.10;0.10;;;;;;;;;;5091520;28;20031;-72
2024/03/14 05:49:19;;;;;;;0.47;0.47;;;;;;;;;;5099330;28;20476;-70
2024/03/14 05:51:44;;;;;;;0.32;0.32;;;;;;;;;;5090811;28;20023;-71
2024/03/14 05:54:09;;;;;;;0.10;0.10;;;;;;;;;;5098600;28;20035;-71
2024/03/14 05:56:35;;;;;;;0.25;0.25;;;;;;;;;;5110184;28;20020;-72
2024/03/14 05:59:00;;;;;;;0.20;0.20;;;;;;;;;;5110823;28;20047;-71
2024/03/14 06:01:27;;;;;;;0.30;0.30;;;;;;;;;;5095324;28;20097;-72
2024/03/14 06:03:52;;;;;;;0.10;0.10;;;;;;;;;;5095664;28;20054;-72
2024/03/14 06:06:18;;;;;;;0.10;0.10;;;;;;;;;;5102473;28;20082;-72
2024/03/14 06:08:44;;;;;;;0.50;0.50;;;;;;;;;;5113389;28;20019;-71
2024/03/14 06:11:09;;;;;;;0.32;0.32;;;;;;;;;;5095431;28;20024;-70
2024/03/14 06:13:34;;;;;;;0.35;0.35;;;;;;;;;;5111204;28;20026;-71
2024/03/14 06:16:00;;;;;;;0.40;0.40;;;;;;;;;;5113432;28;20028;-63
2024/03/14 06:18:26;;;;;;;0.10;0.10;;;;;;;;;;5109837;28;20421;-63
2024/03/14 06:20:51;;;;;;;0.57;0.57;;;;;;;;;;5094850;28;20119;-63
2024/03/14 06:23:16;;;;;;;0.10;0.10;;;;;;;;;;5103190;28;20023;-63
2024/03/14 06:25:41;;;;;;;0.40;0.40;;;;;;;;;;5100191;28;20418;-63
2024/03/14 06:28:07;;;;;;;0.50;0.50;;;;;;;;;;5094533;28;20752;-63
2024/03/14 06:30:32;;;;;;;0.68;0.68;;;;;;;;;;5096450;28;20744;-63
2024/03/14 06:32:58;;;;;;;0.00;0.00;;;;;;;;;;5101597;28;20032;-63
2024/03/14 06:35:23;;;;;;;0.20;0.20;;;;;;;;;;5094755;28;20024;-63
2024/03/14 06:37:52;;;;;;;0.10;0.10;;;;;;;;;;5094384;28;20081;-63
2024/03/14 06:40:17;;;;;;;0.28;0.28;;;;;;;;;;5107737;28;20467;-63
2024/03/14 06:42:45;;;;;;;0.10;0.10;;;;;;;;;;5113710;28;20075;-63
2024/03/14 06:45:10;;;;;;;3.70;1.13;;;;;;;;;;5094531;28;20027;-63
2024/03/14 06:47:35;;;;;;;0.15;0.15;;;;;;;;;;5086738;28;20009;-63
2024/03/14 06:50:02;;;;;;;0.30;0.22;;;;;;;;;;5084139;28;20031;-63
2024/03/14 06:52:28;;;;;;;0.55;0.55;;;;;;;;;;5094036;28;20379;-63
2024/03/14 06:54:53;;;;;;;0.20;0.20;;;;;;;;;;5076309;28;20027;-63
2024/03/14 06:57:19;;;;;;;0.25;0.20;;;;;;;;;;5112750;28;20081;-63
2024/03/14 06:59:48;;;;;;;1.08;0.60;;;;;;;;;;5114336;28;20016;-63
2024/03/14 07:02:16;;;;;;;0.10;0.10;;;;;;;;;;5105534;28;20495;-63
2024/03/14 07:04:42;;;;;;;0.20;0.20;;;;;;;;;;5095575;28;20024;-63
2024/03/14 07:07:11;;;;;;;0.63;0.63;;;;;;;;;;5088966;28;20104;-62
2024/03/14 07:09:36;;;;;;;0.30;0.30;;;;;;;;;;5079986;28;20024;-64
2024/03/14 07:12:01;;;;;;;0.35;0.35;;;;;;;;;;5079126;28;20452;-62
2024/03/14 07:14:29;;;;;;;0.20;0.20;;;;;;;;;;5085320;28;20107;-63
2024/03/14 07:16:54;;;;;;;0.10;0.10;;;;;;;;;;5094302;28;20028;-63
2024/03/14 07:19:21;;;;;;;0.13;0.13;;;;;;;;;;5088531;28;20035;-63
2024/03/14 07:21:56;;;;;;;3.08;0.95;;;;;;;;;;5091427;28;20099;-63
2024/03/14 07:24:22;;;;;;;0.32;0.32;;;;;;;;;;5091112;28;20017;-63
2024/03/14 07:26:47;;;;;;;2.63;0.57;;;;;;;;;;5085311;28;20028;-64
2024/03/14 07:29:13;;;;;;;0.05;0.05;;;;;;;;;;5083917;28;20089;-63
2024/03/14 07:31:38;;;;;;;0.38;0.38;;;;;;;;;;5094754;28;20016;-63
2024/03/14 07:34:07;;;;;;;0.17;0.17;;;;;;;;;;5089142;28;20016;-63
2024/03/14 07:36:32;;;;;;;0.00;0.00;;;;;;;;;;5075958;28;20102;-63
2024/03/14 07:38:57;;;;;;;0.35;0.30;;;;;;;;;;5088004;28;20161;-62
2024/03/14 07:41:23;;;;;;;0.52;0.52;;;;;;;;;;5092601;28;20087;-63
2024/03/14 07:43:48;;;;;;;0.53;0.53;;;;;;;;;;5094056;28;20028;-63
2024/03/14 07:46:14;;;;;;;0.80;0.80;;;;;;;;;;5094182;28;20261;-63
2024/03/14 07:48:41;;;;;;;0.10;0.10;;;;;;;;;;5091803;28;20011;-63
2024/03/14 07:51:09;;;;;;;0.20;0.15;;;;;;;;;;5086741;28;20463;-63
2024/03/14 07:53:35;;;;;;;0.40;0.40;;;;;;;;;;5086961;28;20028;-64
2024/03/14 07:56:00;;;;;;;0.23;0.23;;;;;;;;;;5092233;28;20047;-63
2024/03/14 07:58:26;;;;;;;0.73;0.73;;;;;;;;;;5079301;28;20261;-63
2024/03/14 08:00:52;;;;;;;0.25;0.25;;;;;;;;;;5089326;28;20030;-63
2024/03/14 08:03:18;;;;;;;0.70;0.65;;;;;;;;;;5092708;28;20016;-63
2024/03/14 08:05:43;;;;;;;0.60;0.60;;;;;;;;;;5093552;28;20025;-63
2024/03/14 08:08:08;;;;;;;1.13;0.40;;;;;;;;;;5091470;28;20248;-63
2024/03/14 08:10:33;;;;;;;0.40;0.40;;;;;;;;;;5093600;28;20016;-63
2024/03/14 08:12:59;;;;;;;0.20;0.20;;;;;;;;;;5093364;28;20651;-63
2024/03/14 08:15:36;;;;;;;0.75;0.75;;;;;;;;;;5093422;28;20257;-62
2024/03/14 08:18:02;;;;;;;0.20;0.20;;;;;;;;;;5087136;28;20052;-62
2024/03/14 08:20:28;;;;;;;0.28;0.28;;;;;;;;;;5090460;28;20034;-63
2024/03/14 08:22:54;;;;;;;0.80;0.80;;;;;;;;;;5084222;28;20148;-62
2024/03/14 08:25:19;;;;;;;1.60;0.57;;;;;;;;;;5093083;28;20056;-62
2024/03/14 08:27:46;;;;;;;0.77;0.75;;;;;;;;;;5091509;28;20021;-62
2024/03/14 08:30:11;;;;;;;0.13;0.13;;;;;;;;;;5093290;28;20028;-62
2024/03/14 08:32:38;;;;;;;0.28;0.28;;;;;;;;;;5093261;28;20142;-62
2024/03/14 08:35:05;;;;;;;0.75;0.60;;;;;;;;;;5093484;28;20467;-62
2024/03/14 08:37:30;;;;;;;0.55;0.55;;;;;;;;;;5087026;28;20469;-62
2024/03/14 08:39:55;;;;;;;0.57;0.57;;;;;;;;;;5089981;28;20031;-62
2024/03/14 08:42:30;;;;;;;1.30;1.20;;;;;;;;;;5092964;28;20260;-62
2024/03/14 08:44:55;;;;;;;0.40;0.40;;;;;;;;;;5092792;28;20016;-62
2024/03/14 08:47:20;;;;;;;0.40;0.40;;;;;;;;;;5073702;28;20024;-62
2024/03/14 08:49:47;;;;;;;0.87;0.87;;;;;;;;;;5086218;28;20257;-62
2024/03/14 08:52:14;;;;;;;0.30;0.30;;;;;;;;;;5092196;28;20074;-64
2024/03/14 08:54:44;;;;;;;0.47;0.47;;;;;;;;;;5080164;28;20029;-63
2024/03/14 08:57:12;;;;;;;0.80;0.75;;;;;;;;;;5088399;28;20546;-63
2024/03/14 08:59:39;;;;;;;0.50;0.50;;;;;;;;;;5092382;28;20039;-65
2024/03/14 09:02:07;;;;;;;0.43;0.43;;;;;;;;;;5091596;28;20467;-63
2024/03/14 09:04:33;;;;;;;0.60;0.57;;;;;;;;;;5092349;28;20372;-63
2024/03/14 09:06:59;;;;;;;0.95;0.82;;;;;;;;;;5066129;28;20020;-63
2024/03/14 09:09:26;;;;;;;0.83;0.40;;;;;;;;;;5092627;28;20070;-63
2024/03/14 09:11:52;;;;;;;0.22;0.22;;;;;;;;;;5084343;28;20028;-63
2024/03/14 09:14:17;;;;;;;0.63;0.63;;;;;;;;;;5092882;28;20035;-63
2024/03/14 09:16:44;;;;;;;1.10;1.00;;;;;;;;;;5092752;28;20020;-63
2024/03/14 09:19:09;;;;;;;0.95;0.65;;;;;;;;;;5092802;28;20376;-63
2024/03/14 09:21:36;;;;;;;2.20;1.03;;;;;;;;;;5097096;28;20031;-63
2024/03/14 09:24:01;;;;;;;0.60;0.60;;;;;;;;;;5096980;28;20327;-61
2024/03/14 09:26:26;;;;;;;0.83;0.80;;;;;;;;;;5107823;28;20606;-61
2024/03/14 09:28:53;;;;;;;0.70;0.60;;;;;;;;;;5100274;28;20277;-61
2024/03/14 09:31:19;;;;;;;1.05;0.95;;;;;;;;;;5094599;28;20352;-61
2024/03/14 09:33:44;;;;;;;0.80;0.70;;;;;;;;;;5103852;28;20042;-61
2024/03/14 09:36:09;;;;;;;1.70;1.00;;;;;;;;;;5112158;28;20027;-74
2024/03/14 09:38:35;;;;;;;1.73;0.98;;;;;;;;;;5101200;28;20352;-60
2024/03/14 09:41:00;;;;;;;0.95;0.88;;;;;;;;;;5097073;28;20059;-60
2024/03/14 09:43:25;;;;;;;0.83;0.70;;;;;;;;;;5096912;28;20020;-61
2024/03/14 09:45:54;;;;;;;1.02;0.95;;;;;;;;;;5096839;28;20276;-61
2024/03/14 09:48:20;;;;;;;1.77;1.33;;;;;;;;;;5096931;28;20073;-61
2024/03/14 09:50:47;;;;;;;1.40;0.90;;;;;;;;;;5096966;28;20430;-61
2024/03/14 09:53:19;;;;;;;0.50;0.30;;;;;;;;;;5096674;28;20024;-61
2024/03/14 09:55:45;;;;;;;;;;;;;;;;;;5098822;28;20034;-60
2024/03/14 09:58:14;;;;;;;0.50;0.50;;;;;;;;;;5098345;28;19904;-63
2024/03/14 10:00:39;;;;;;;1.73;1.17;;;;;;;;;;5096798;28;20056;-61
2024/03/14 10:03:07;;;;;;;0.90;0.60;;;;;;;;;;5096880;28;20103;-61
2024/03/14 10:05:35;;;;;;;0.77;0.45;;;;;;;;;;5096496;28;20251;-61
2024/03/14 10:08:02;;;;;;;0.22;0.22;;;;;;;;;;5096457;28;20028;-61
2024/03/14 10:10:31;;;;;;;0.75;0.50;;;;;;;;;;5096362;28;20016;-61
2024/03/14 10:12:57;;;;;;;0.50;0.40;;;;;;;;;;5096688;28;20035;-61
2024/03/14 10:15:22;;;;;;;0.43;0.43;;;;;;;;;;5096351;28;20020;-61
2024/03/14 10:17:47;;;;;;;0.73;0.60;;;;;;;;;;5096328;28;20081;-60
2024/03/14 10:20:13;;;;;;;0.35;0.35;;;;;;;;;;5096520;28;20024;-61
2024/03/14 10:22:39;;;;;;;0.38;0.35;;;;;;;;;;5096486;28;20380;-61
2024/03/14 10:25:14;;;;;;;0.28;0.28;;;;;;;;;;5096134;28;20016;-61
2024/03/14 10:27:44;;;;;;;0.50;0.50;;;;;;;;;;5096350;28;20099;-61
2024/03/14 10:30:12;;;;;;;0.32;0.32;;;;;;;;;;5095681;28;20048;-60
2024/03/14 10:32:38;;;;;;;0.47;0.47;;;;;;;;;;5096194;28;20051;-62
2024/03/14 10:35:08;;;;;;;0.40;0.38;;;;;;;;;;5096257;28;20031;-60
2024/03/14 10:37:34;;;;;;;1.05;0.65;;;;;;;;;;5095912;28;20065;-60
2024/03/14 10:40:02;;;;;;;0.38;0.38;;;;;;;;;;5096700;28;20483;-60
2024/03/14 10:42:28;;;;;;;0.50;0.50;;;;;;;;;;5098375;28;20016;-62
2024/03/14 10:44:53;;;;;;;0.30;0.30;;;;;;;;;;5096010;28;20475;-63
2024/03/14 10:47:19;;;;;;;0.20;0.20;;;;;;;;;;5095592;28;20027;-63
2024/03/14 10:49:46;;;;;;;0.75;0.65;;;;;;;;;;5095737;28;20020;-63
2024/03/14 10:52:14;;;;;;;0.50;0.43;;;;;;;;;;5095891;28;20107;-63
2024/03/14 10:54:41;;;;;;;0.20;0.20;;;;;;;;;;5094699;28;20038;-62
2024/03/14 10:57:07;;;;;;;0.65;0.65;;;;;;;;;;5095609;28;20023;-63
2024/03/14 10:59:34;;;;;;;0.60;0.43;;;;;;;;;;5095705;28;20065;-62
2024/03/14 11:02:00;;;;;;;0.55;0.50;;;;;;;;;;5095649;28;20020;-62
2024/03/14 11:04:25;;;;;;;0.30;0.30;;;;;;;;;;5095684;28;20130;-62
2024/03/14 11:06:50;;;;;;;0.25;0.25;;;;;;;;;;5095315;28;20049;-63
2024/03/14 11:09:23;;;;;;;0.30;0.30;;;;;;;;;;5094856;28;20020;-64
2024/03/14 11:11:51;;;;;;;0.32;0.30;;;;;;;;;;5093717;28;20031;-64
2024/03/14 11:14:21;;;;;;;0.40;0.40;;;;;;;;;;5088959;28;20024;-63
2024/03/14 11:16:50;;;;;;;0.55;0.50;;;;;;;;;;5090945;28;20047;-63
2024/03/14 11:19:20;;;;;;;0.25;0.25;;;;;;;;;;5089591;28;20476;-63
2024/03/14 11:21:46;;;;;;;0.45;0.43;;;;;;;;;;5094046;28;20032;-64
2024/03/14 11:24:13;;;;;;;0.20;0.20;;;;;;;;;;5088572;28;20028;-63
2024/03/14 11:26:43;;;;;;;0.88;0.70;;;;;;;;;;5093200;28;20028;-63
2024/03/14 11:29:11;;;;;;;0.47;0.43;;;;;;;;;;5084583;28;20043;-63
2024/03/14 11:31:45;;;;;;;0.15;0.15;;;;;;;;;;5082716;28;20475;-63
2024/03/14 11:34:17;;;;;;;0.00;0.00;;;;;;;;;;5081770;28;20107;-63
2024/03/14 11:36:42;;;;;;;;;;;;;;;;;;5111202;28;20031;-63
2024/03/14 11:39:20;;;;;;;0.55;0.52;;;;;;;;;;5108867;28;19908;-63
2024/03/14 11:41:46;;;;;;;0.25;0.25;;;;;;;;;;5078758;28;20383;-63
2024/03/14 11:44:15;;;;;;;0.10;0.10;;;;;;;;;;5090302;28;20017;-64
2024/03/14 11:46:40;;;;;;;0.38;0.38;;;;;;;;;;5092321;28;20012;-63
2024/03/14 11:49:21;;;;;;;0.37;0.30;;;;;;;;;;5085935;28;20456;-63
2024/03/14 11:51:49;;;;;;;0.30;0.22;;;;;;;;;;5077487;28;20487;-63
2024/03/14 11:54:17;;;;;;;0.47;0.40;;;;;;;;;;5093806;28;20021;-63
2024/03/14 11:56:43;;;;;;;0.52;0.32;;;;;;;;;;5093085;28;20073;-63
2024/03/14 11:59:11;;;;;;;0.10;0.10;;;;;;;;;;5086207;28;20024;-63
2024/03/14 12:01:37;;;;;;;0.70;0.50;;;;;;;;;;5090266;28;20087;-64
2024/03/14 12:04:02;;;;;;;0.30;0.30;;;;;;;;;;5085503;28;20024;-63
2024/03/14 12:06:28;;;;;;;0.30;0.28;;;;;;;;;;5093948;28;20099;-63
2024/03/14 12:08:53;;;;;;;0.60;0.43;;;;;;;;;;5088533;28;20035;-63
2024/03/14 12:11:20;;;;;;;0.38;0.35;;;;;;;;;;5083830;28;20539;-63
2024/03/14 12:13:48;;;;;;;0.13;0.13;;;;;;;;;;5092075;28;20132;-62
2024/03/14 12:16:13;;;;;;;0.73;0.55;;;;;;;;;;5085271;28;20531;-62
2024/03/14 12:18:39;;;;;;;0.32;0.32;;;;;;;;;;5082640;28;20016;-62
2024/03/14 12:21:05;;;;;;;0.17;0.17;;;;;;;;;;5091184;28;20375;-62
2024/03/14 12:23:30;;;;;;;0.30;0.25;;;;;;;;;;5085275;28;20012;-63
2024/03/14 12:26:01;;;;;;;0.10;0.10;;;;;;;;;;5093223;28;20048;-62
2024/03/14 12:28:27;;;;;;;0.10;0.10;;;;;;;;;;5084289;28;20032;-62
2024/03/14 12:30:58;;;;;;;0.15;0.15;;;;;;;;;;5085079;28;20263;-62
2024/03/14 12:33:23;;;;;;;0.20;0.20;;;;;;;;;;5091716;28;20015;-63
2024/03/14 12:35:49;;;;;;;0.20;0.20;;;;;;;;;;5092959;28;20453;-62
2024/03/14 12:38:18;;;;;;;0.10;0.10;;;;;;;;;;5091870;28;20030;-62
2024/03/14 12:40:48;;;;;;;0.75;0.40;;;;;;;;;;5083115;28;20024;-63
2024/03/14 12:43:14;;;;;;;0.30;0.30;;;;;;;;;;5075381;28;20027;-62
2024/03/14 12:45:41;;;;;;;0.43;0.40;;;;;;;;;;5089694;28;20008;-62
2024/03/14 12:48:06;;;;;;;0.10;0.10;;;;;;;;;;5089665;28;20020;-62
2024/03/14 12:50:31;;;;;;;0.10;0.10;;;;;;;;;;5092166;28;20042;-63
2024/03/14 12:53:03;;;;;;;0.00;0.00;;;;;;;;;;5093093;28;20024;-62
2024/03/14 12:55:29;;;;;;;;;;;;;;;;;;5082718;28;20060;-64
2024/03/14 12:57:55;;;;;;;0.10;0.10;;;;;;;;;;5099784;28;20376;-62
2024/03/14 13:00:20;;;;;;;0.15;0.10;;;;;;;;;;5092691;28;20020;-62
2024/03/14 13:02:45;;;;;;;0.00;0.00;;;;;;;;;;5092782;28;20073;-63
2024/03/14 13:05:14;;;;;;;0.40;0.40;;;;;;;;;;5092773;28;20016;-62
2024/03/14 13:07:39;;;;;;;0.13;0.13;;;;;;;;;;5091166;28;20059;-62
2024/03/14 13:10:15;;;;;;;0.10;0.10;;;;;;;;;;5090015;28;20066;-62
2024/03/14 13:12:40;;;;;;;0.22;0.22;;;;;;;;;;5096187;28;20016;-62
2024/03/14 13:15:14;;;;;;;0.23;0.23;;;;;;;;;;5111074;28;20534;-62
2024/03/14 13:17:45;;;;;;;0.10;0.10;;;;;;;;;;5117483;28;20244;-62
2024/03/14 13:20:14;;;;;;;0.75;0.52;;;;;;;;;;5117219;28;20098;-62
2024/03/14 13:22:43;;;;;;;0.10;0.10;;;;;;;;;;5117171;28;20043;-62
2024/03/14 13:25:09;;;;;;;0.10;0.10;;;;;;;;;;5117214;28;20020;-62
2024/03/14 13:27:34;;;;;;;0.20;0.20;;;;;;;;;;5099778;28;20369;-62
2024/03/14 13:30:04;;;;;;;0.10;0.10;;;;;;;;;;5096373;28;20403;-62
2024/03/14 13:32:29;;;;;;;0.20;0.20;;;;;;;;;;5096786;28;20084;-63
2024/03/14 13:34:58;;;;;;;0.40;0.37;;;;;;;;;;5094396;28;20531;-62
2024/03/14 13:37:23;;;;;;;0.20;0.20;;;;;;;;;;5096534;28;20261;-62
2024/03/14 13:39:49;;;;;;;0.20;0.20;;;;;;;;;;5090494;28;20037;-62
2024/03/14 13:42:16;;;;;;;0.13;0.13;;;;;;;;;;5085285;28;20422;-62
2024/03/14 13:44:42;;;;;;;0.20;0.20;;;;;;;;;;5086799;28;20020;-63
2024/03/14 13:47:14;;;;;;;0.63;0.47;;;;;;;;;;5085741;28;20375;-62
2024/03/14 13:49:52;;;;;;;0.20;0.20;;;;;;;;;;5093922;28;20031;-62
2024/03/14 13:52:19;;;;;;;0.52;0.20;;;;;;;;;;5092402;28;20039;-62
2024/03/14 13:54:47;;;;;;;0.00;0.00;;;;;;;;;;5088511;28;20020;-62
2024/03/14 13:57:14;;;;;;;0.10;0.10;;;;;;;;;;5095443;28;20066;-62
2024/03/14 13:59:46;;;;;;;0.10;0.10;;;;;;;;;;5086090;28;20484;-63
2024/03/14 14:02:11;;;;;;;0.93;0.45;;;;;;;;;;5090098;28;20523;-63
2024/03/14 14:04:39;;;;;;;0.10;0.10;;;;;;;;;;5096006;28;20107;-63
2024/03/14 14:07:05;;;;;;;0.20;0.20;;;;;;;;;;5084206;28;20459;-62
2024/03/14 14:09:31;;;;;;;0.20;0.20;;;;;;;;;;5075625;28;20024;-64
2024/03/14 14:11:57;;;;;;;0.10;0.10;;;;;;;;;;5075160;28;20039;-63
2024/03/14 14:14:22;;;;;;;0.25;0.25;;;;;;;;;;5095858;28;20031;-62
2024/03/14 14:16:48;;;;;;;0.10;0.10;;;;;;;;;;5087579;28;20525;-62
2024/03/14 14:19:13;;;;;;;1.17;0.40;;;;;;;;;;5095168;28;20035;-62
2024/03/14 14:21:38;;;;;;;0.10;0.10;;;;;;;;;;5095174;28;20149;-63
2024/03/14 14:24:04;;;;;;;0.05;0.05;;;;;;;;;;5094463;28;20111;-73
2024/03/14 14:26:30;;;;;;;0.25;0.25;;;;;;;;;;5094929;28;20016;-77
2024/03/14 14:28:56;;;;;;;0.08;0.08;;;;;;;;;;5095203;28;20044;-69
2024/03/14 14:31:21;;;;;;;0.25;0.25;;;;;;;;;;5087743;28;20133;-70
2024/03/14 14:33:47;;;;;;;0.00;0.00;;;;;;;;;;5086845;28;20476;-70
2024/03/14 14:36:12;;;;;;;0.20;0.20;;;;;;;;;;5092856;28;20020;-70
2024/03/14 14:38:38;;;;;;;0.65;0.65;;;;;;;;;;5086837;28;20063;-70
2024/03/14 14:41:03;;;;;;;0.10;0.10;;;;;;;;;;5089887;28;20034;-70